Terminal Aerodrome Forecast
Issued by NWS

Home | Current Version | Previous Version | Text Only | Print | Product List | Glossary On
Versions: 1 2 3 4 5 6 7 8 9 10 11 12 13 14 15 16 17 18 19 20 21 22 23 24 25 26 27 28 29 30 31 32 33 34 35 36 37 38 39 40 41 42 43 44 45 46
289
FTUS44 KHGX 010230 AAA
TAFLBX
TAF AMD
KLBX 010230Z 0103/0124 08003KT P6SM BKN018
     FM010800 07007KT P6SM OVC007
     FM011600 12007KT P6SM VCSH BKN015
     FM012100 11008KT P6SM VCSH BKN040 PROB30 0121/0124 5SM -TSRA
      BKN030CB=

USA.gov is the U.S. government's official web portal to all federal, state and local government web resources and services.